Melun-Villaroche Air Base

Airport
ICAO code: 
LFPM
Summary
ICAO Region: 
EUR
Territory: 
Location: 
, Ile-de-France
Serving: 
Melun
Elevation: 
302 ft
Coordinates: 
Aerial View: 
48° 36' 17.01" N, 2° 40' 16.028" E
Metar
Observation
LFPM 302130Z AUTO 22015KT 9999 OVC009 07/06 Q1014
Station
Melun
Date/Time
2021-11-30 21:30:00
Wind direction
220°
Wind speed
15 kts
Lowest cloud amount
overcast
Temperature
7°C
Dew point
6°C
Humidity
93%
QNH
1014 hPa
Weather condition
n/a

Runways

Designator Length Width Surface Rops
1/19 1300 30 ASP Yes/Yes
10/28 1975 45 ASP Yes/Yes
Airport map: 
Aerial View: 

SKYbrary Partners:

Safety knowledge contributed by: